Time;durP1;ratioP1;P1;durP2;ratioP2;P2;SDS_P1;SDS_P2;PMS_P1;PMS_P2;Temp;Humidity;BMP_temperature;BMP_pressure;BME280_temperature;BME280_humidity;BME280_pressure;Samples;Min_cycle;Max_cycle;Signal;HPM_P1;HPM_P2
2022/10/09 00:01:30;;;;;;;0.32;0.32;;;8.80;99.90;;;8.84;100.00;101115.25;4836895;29;20245;-82
2022/10/09 00:03:59;;;;;;;0.20;0.20;;;8.70;99.90;;;8.83;100.00;101120.50;4835749;29;20211;-83
2022/10/09 00:06:33;;;;;;;0.30;0.30;;;8.70;99.90;;;8.80;100.00;101120.41;4840073;29;20244;-81
2022/10/09 00:09:03;;;;;;;0.20;0.20;;;8.70;99.90;;;8.78;100.00;101108.94;4838897;29;20214;-86
2022/10/09 00:11:32;;;;;;;0.20;0.20;;;8.70;99.90;;;8.75;100.00;101104.47;4840872;29;20229;-82
2022/10/09 00:14:02;;;;;;;0.20;0.20;;;8.70;99.90;;;8.77;100.00;101115.06;4837565;29;20210;-83
2022/10/09 00:16:30;;;;;;;0.20;0.20;;;8.70;99.90;;;8.72;100.00;101103.50;4843483;29;20254;-82
2022/10/09 00:18:58;;;;;;;0.20;0.20;;;8.60;99.90;;;8.64;100.00;101109.44;4848600;29;20213;-82
2022/10/09 00:21:30;;;;;;;0.20;0.20;;;8.60;99.90;;;8.72;100.00;101114.03;4841514;29;20214;-81
2022/10/09 00:24:01;;;;;;;0.20;0.20;;;8.60;99.90;;;8.74;100.00;101107.97;4842867;29;20218;-87
2022/10/09 00:26:30;;;;;;;0.10;0.10;;;8.60;99.90;;;8.73;100.00;101105.28;4837153;29;20246;-82
2022/10/09 00:28:58;;;;;;;0.20;0.20;;;8.60;99.90;;;8.71;100.00;101106.97;4839672;29;20210;-82
2022/10/09 00:31:26;;;;;;;0.20;0.20;;;8.60;99.90;;;8.68;100.00;101099.88;4837541;29;20214;-82
2022/10/09 00:33:55;;;;;;;0.20;0.20;;;8.60;99.90;;;8.66;100.00;101102.47;4839241;29;20218;-88
2022/10/09 00:36:25;;;;;;;0.10;0.10;;;8.60;99.90;;;8.67;100.00;101100.72;4839053;29;20241;-82
2022/10/09 00:38:54;;;;;;;0.10;0.10;;;8.60;99.90;;;8.72;100.00;101107.03;4855122;29;20220;-84
2022/10/09 00:41:29;;;;;;;0.20;0.20;;;8.60;99.90;;;8.70;100.00;101094.66;4838753;29;20728;-82
2022/10/09 00:44:01;;;;;;;0.32;0.32;;;8.60;99.90;;;8.63;100.00;101099.75;4838469;29;20210;-82
2022/10/09 00:46:45;;;;;;;0.20;0.20;;;8.50;99.90;;;8.60;100.00;101102.31;4845709;29;20238;-83
2022/10/09 00:49:24;;;;;;;0.10;0.10;;;8.50;99.90;;;8.62;100.00;101097.97;4850784;29;20218;-84
2022/10/09 00:51:59;;;;;;;0.20;0.20;;;8.60;99.90;;;8.68;100.00;101104.25;4838976;29;20237;-82
2022/10/09 00:54:31;;;;;;;0.20;0.20;;;8.50;99.90;;;8.67;100.00;101106.00;4860925;29;20660;-82
2022/10/09 00:56:59;;;;;;;0.10;0.10;;;8.60;99.90;;;8.59;100.00;101099.63;4838808;29;20218;-82
2022/10/09 00:59:28;;;;;;;0.25;0.25;;;8.50;99.90;;;8.56;100.00;101084.63;4841402;29;20220;-82
2022/10/09 01:01:56;;;;;;;0.20;0.20;;;8.50;99.90;;;8.55;100.00;101074.94;4845810;29;20274;-83
2022/10/09 01:04:24;;;;;;;0.10;0.10;;;8.50;99.90;;;8.57;100.00;101078.50;4843527;29;20206;-83
2022/10/09 01:07:18;;;;;;;0.52;0.52;;;8.50;99.90;;;8.61;100.00;101082.09;4846317;29;20261;-82
2022/10/09 01:10:01;;;;;;;0.10;0.10;;;8.50;99.90;;;8.51;100.00;101080.97;4835940;29;20215;-84
2022/10/09 01:13:10;;;;;;;0.20;0.20;;;8.40;99.90;;;8.44;100.00;101075.47;4841897;29;20225;-82
2022/10/09 01:15:57;;;;;;;0.10;0.10;;;8.40;99.90;;;8.48;100.00;101091.41;4854062;29;20241;-81
2022/10/09 01:18:57;;;;;;;0.10;0.10;;;8.40;99.90;;;8.43;100.00;101090.41;4847002;29;20225;-84
2022/10/09 01:21:48;;;;;;;0.20;0.20;;;8.40;99.90;;;8.39;100.00;101083.25;4825986;29;20578;-82
2022/10/09 01:24:24;;;;;;;0.20;0.20;;;8.30;99.90;;;8.40;100.00;101074.50;4843284;29;20214;-82
2022/10/09 01:27:20;;;;;;;0.45;0.45;;;8.40;99.90;;;8.54;100.00;101073.13;4847668;29;20246;-83
2022/10/09 01:29:57;;;;;;;0.20;0.20;;;8.40;99.90;;;8.53;100.00;101076.63;4839933;29;20213;-82
2022/10/09 01:32:32;;;;;;;0.10;0.10;;;8.40;99.90;;;8.42;100.00;101067.53;4839539;29;20218;-81
2022/10/09 01:35:01;;;;;;;0.20;0.20;;;8.40;99.90;;;8.45;100.00;101072.88;4843475;29;20229;-82
2022/10/09 01:37:30;;;;;;;0.30;0.30;;;8.40;99.90;;;8.40;100.00;101057.78;4841884;29;20220;-82
2022/10/09 01:39:58;;;;;;;0.38;0.38;;;8.40;99.90;;;8.43;100.00;101064.03;4840198;29;20230;-82
2022/10/09 01:42:28;;;;;;;0.20;0.20;;;8.40;99.90;;;8.41;100.00;101062.22;4843916;29;20214;-83
2022/10/09 01:44:57;;;;;;;0.20;0.20;;;8.40;99.90;;;8.47;100.00;101059.75;4855810;29;20234;-85
2022/10/09 01:47:25;;;;;;;0.20;0.20;;;8.40;99.90;;;8.52;100.00;101066.03;4840202;29;20219;-82
2022/10/09 01:50:28;;;;;;;0.20;0.20;;;8.70;99.90;;;8.54;100.00;101064.34;4842998;29;20206;-82
2022/10/09 01:53:07;;;;;;;0.20;0.20;;;8.40;99.90;;;8.45;100.00;101045.63;4808092;29;20205;-82
2022/10/09 01:56:19;;;;;;;0.20;0.20;;;8.40;99.90;;;8.50;100.00;101050.19;4841130;29;20253;-82
2022/10/09 01:58:58;;;;;;;0.20;0.20;;;8.40;99.90;;;8.41;100.00;101047.28;4833065;29;20214;-85
2022/10/09 02:01:34;;;;;;;0.20;0.20;;;8.40;99.90;;;8.40;100.00;101052.53;4821916;29;20240;-85
2022/10/09 02:04:06;;;;;;;0.20;0.20;;;8.30;99.90;;;8.37;100.00;101048.06;4824841;29;20206;-82
2022/10/09 02:06:37;;;;;;;0.20;0.20;;;8.30;99.90;;;8.34;100.00;101055.88;4835476;29;20242;-82
2022/10/09 02:09:12;;;;;;;0.20;0.20;;;8.30;99.90;;;8.30;100.00;101046.97;4840950;29;20682;-82
2022/10/09 02:11:43;;;;;;;0.20;0.20;;;8.30;99.90;;;8.23;100.00;101046.75;4838484;29;20210;-87
2022/10/09 02:14:11;;;;;;;0.20;0.20;;;8.20;99.90;;;8.26;100.00;101054.75;4838759;29;20210;-82
2022/10/09 02:16:46;;;;;;;0.20;0.20;;;8.20;99.90;;;8.23;100.00;101055.53;4839957;29;20229;-88
2022/10/09 02:19:30;;;;;;;0.20;0.20;;;8.20;99.90;;;8.28;100.00;101060.94;4824878;29;20206;-82
2022/10/09 02:22:25;;;;;;;0.20;0.20;;;8.20;99.90;;;8.30;100.00;101060.16;4826094;29;20238;-82
2022/10/09 02:24:56;;;;;;;0.10;0.10;;;8.20;99.90;;;8.22;100.00;101053.75;4834279;29;20679;-82
2022/10/09 02:27:26;;;;;;;0.20;0.20;;;8.20;99.90;;;8.14;100.00;101051.75;4846073;29;20218;-82
2022/10/09 02:29:54;;;;;;;0.20;0.20;;;8.10;99.90;;;8.10;100.00;101039.34;4833389;29;20214;-83
2022/10/09 02:32:22;;;;;;;0.50;0.50;;;8.00;99.90;;;8.06;100.00;101041.00;4834649;29;20213;-83
2022/10/09 02:34:51;;;;;;;0.50;0.50;;;8.00;99.90;;;7.99;100.00;101047.84;4833607;29;20261;-82
2022/10/09 02:37:19;;;;;;;0.20;0.20;;;8.00;99.90;;;7.84;100.00;101042.13;4836643;29;20621;-82
2022/10/09 02:39:48;;;;;;;0.20;0.20;;;7.80;99.90;;;7.86;100.00;101045.69;4846978;29;20210;-81
2022/10/09 02:42:16;;;;;;;0.20;0.20;;;7.80;99.90;;;7.89;100.00;101053.69;4831725;29;20264;-89
2022/10/09 02:44:44;;;;;;;0.20;0.20;;;;;;;7.90;100.00;101059.84;4834086;29;20228;-82
2022/10/09 02:47:12;;;;;;;0.20;0.20;;;7.80;99.90;;;7.90;100.00;101052.84;4831507;29;20588;-81
2022/10/09 02:49:40;;;;;;;0.20;0.20;;;7.90;99.90;;;7.93;100.00;101049.41;4835848;29;20229;-82
2022/10/09 02:52:09;;;;;;;0.20;0.20;;;;;;;8.10;100.00;101069.22;4835439;29;20215;-82
2022/10/09 02:54:37;;;;;;;0.20;0.20;;;8.00;99.90;;;7.95;100.00;101045.97;4838126;29;20222;-82
2022/10/09 02:57:05;;;;;;;0.20;0.20;;;7.90;99.90;;;7.98;100.00;101053.06;4837076;29;20218;-84
2022/10/09 02:59:33;;;;;;;0.20;0.20;;;7.90;99.90;;;8.12;100.00;101053.47;4828116;29;20210;-82
2022/10/09 03:02:01;;;;;;;0.20;0.20;;;8.00;99.90;;;8.05;100.00;101051.50;4847972;29;20238;-82
2022/10/09 03:04:30;;;;;;;0.20;0.20;;;;;;;8.02;100.00;101050.56;4835846;29;20210;-85
2022/10/09 03:06:58;;;;;;;0.10;0.10;;;;;;;8.15;100.00;101054.44;4836956;29;20206;-84
2022/10/09 03:09:27;;;;;;;0.35;0.35;;;8.00;99.90;;;8.07;100.00;101044.53;4834740;29;20214;-83
2022/10/09 03:12:00;;;;;;;0.93;0.93;;;8.10;99.90;;;8.11;100.00;101042.03;4837773;29;20213;-82
2022/10/09 03:14:28;;;;;;;0.10;0.10;;;8.10;99.90;;;7.91;100.00;101025.66;4837020;29;20210;-81
2022/10/09 03:16:56;;;;;;;0.20;0.20;;;7.90;99.90;;;7.91;100.00;101036.19;4838920;29;20224;-85
2022/10/09 03:19:24;;;;;;;0.20;0.20;;;7.90;99.90;;;7.80;100.00;101031.41;4835352;29;20206;-84
2022/10/09 03:21:52;;;;;;;0.20;0.20;;;7.80;99.90;;;7.72;100.00;101039.97;4836852;29;20236;-82
2022/10/09 03:24:20;;;;;;;0.20;0.20;;;7.70;99.90;;;7.70;100.00;101036.41;4835540;29;20206;-85
2022/10/09 03:26:48;;;;;;;0.10;0.10;;;7.70;99.90;;;7.56;100.00;101045.63;4834475;29;20252;-82
2022/10/09 03:29:16;;;;;;;0.57;0.57;;;7.60;99.90;;;7.53;100.00;101047.28;4834623;29;20210;-82
2022/10/09 03:31:44;;;;;;;0.20;0.20;;;7.50;99.90;;;7.51;100.00;101056.84;4839827;29;20221;-84
2022/10/09 03:34:20;;;;;;;0.20;0.20;;;7.50;99.90;;;7.46;100.00;101053.19;4840370;29;20209;-86
2022/10/09 03:36:48;;;;;;;0.30;0.30;;;7.40;99.90;;;7.54;100.00;101068.38;4842014;29;20230;-83
2022/10/09 03:39:16;;;;;;;0.20;0.20;;;7.50;99.90;;;7.53;100.00;101066.59;4842114;29;20214;-82
2022/10/09 03:41:44;;;;;;;0.30;0.30;;;7.50;99.90;;;7.56;100.00;101064.06;4834510;29;20234;-83
2022/10/09 03:44:12;;;;;;;0.20;0.20;;;7.50;99.90;;;7.61;100.00;101064.19;4835095;29;20214;-83
2022/10/09 03:46:40;;;;;;;0.30;0.30;;;7.50;99.90;;;7.51;100.00;101060.38;4835297;29;20245;-87
2022/10/09 03:49:08;;;;;;;0.73;0.55;;;7.50;99.90;;;7.50;100.00;101062.97;4841076;29;20569;-83
2022/10/09 03:51:36;;;;;;;0.10;0.10;;;7.40;99.90;;;7.44;100.00;101070.66;4833625;29;20226;-82
2022/10/09 03:54:05;;;;;;;0.10;0.10;;;7.40;99.90;;;7.43;100.00;101063.63;4845176;29;20214;-82
2022/10/09 03:56:33;;;;;;;0.10;0.10;;;7.40;99.90;;;7.45;100.00;101070.72;4837506;29;20242;-82
2022/10/09 03:59:04;;;;;;;0.20;0.20;;;7.40;99.90;;;7.49;100.00;101071.72;4838826;29;20202;-84
2022/10/09 04:01:32;;;;;;;0.20;0.20;;;7.40;99.90;;;7.48;100.00;101077.81;4838229;29;20225;-82
2022/10/09 04:04:00;;;;;;;0.32;0.32;;;7.40;99.90;;;7.44;100.00;101074.19;4841109;29;20206;-83
2022/10/09 04:06:28;;;;;;;0.30;0.30;;;7.40;99.90;;;7.52;100.00;101080.59;4841890;29;20233;-81
2022/10/09 04:08:56;;;;;;;0.20;0.20;;;7.50;99.90;;;7.49;100.00;101077.88;4854161;29;20217;-84
2022/10/09 04:11:24;;;;;;;0.10;0.10;;;7.40;99.90;;;7.42;100.00;101073.25;4836765;29;20214;-86
2022/10/09 04:13:52;;;;;;;0.10;0.10;;;7.40;99.90;;;7.43;100.00;101074.16;4837442;29;20202;-81
2022/10/09 04:16:20;;;;;;;0.20;0.20;;;7.40;99.90;;;7.47;100.00;101076.03;4851990;29;20750;-83
2022/10/09 04:18:48;;;;;;;0.40;0.40;;;7.40;99.90;;;7.46;100.00;101069.88;4842366;29;20217;-82
2022/10/09 04:21:16;;;;;;;0.20;0.20;;;7.40;99.90;;;7.45;100.00;101073.34;4840896;29;20226;-82
2022/10/09 04:23:44;;;;;;;0.20;0.20;;;7.40;99.90;;;7.47;100.00;101074.28;4841918;29;20232;-82
2022/10/09 04:26:13;;;;;;;0.20;0.20;;;7.40;99.90;;;7.42;100.00;101075.00;4846483;29;20238;-82
2022/10/09 04:28:41;;;;;;;0.20;0.20;;;7.40;99.90;;;7.36;100.00;101084.47;4840616;29;20221;-82
2022/10/09 04:31:09;;;;;;;0.20;0.20;;;7.40;99.90;;;7.28;100.00;101083.34;4839613;29;20225;-82
2022/10/09 04:33:37;;;;;;;0.25;0.25;;;7.30;99.90;;;7.26;100.00;101077.13;4842584;29;20214;-82
2022/10/09 04:36:05;;;;;;;0.10;0.10;;;7.20;99.90;;;7.30;100.00;101079.00;4840987;29;20233;-87
2022/10/09 04:38:34;;;;;;;0.52;0.52;;;7.30;99.90;;;7.30;100.00;101083.38;4840764;29;20213;-82
2022/10/09 04:41:05;;;;;;;0.28;0.28;;;7.20;99.90;;;7.24;100.00;101081.44;4843519;29;20217;-84
2022/10/09 04:43:34;;;;;;;0.47;0.47;;;7.20;99.90;;;7.23;100.00;101071.78;4850857;29;20214;-82
2022/10/09 04:46:12;;;;;;;0.20;0.20;;;7.20;99.90;;;7.19;100.00;101075.16;4848010;29;20238;-81
2022/10/09 04:48:43;;;;;;;0.20;0.20;;;7.20;99.90;;;7.14;100.00;101084.63;4846587;29;20220;-81
2022/10/09 04:51:13;;;;;;;0.47;0.43;;;7.10;99.90;;;7.11;100.00;101087.16;4847078;29;20210;-82
2022/10/09 04:53:43;;;;;;;0.20;0.20;;;7.10;99.90;;;7.14;100.00;101086.34;4842461;29;20223;-83
2022/10/09 04:56:18;;;;;;;0.20;0.20;;;7.10;99.90;;;7.12;100.00;101080.16;4847594;29;20226;-82
2022/10/09 04:58:47;;;;;;;0.10;0.10;;;7.10;99.90;;;7.03;100.00;101075.47;4846517;29;20209;-82
2022/10/09 05:01:23;;;;;;;0.22;0.22;;;7.00;99.90;;;6.88;100.00;101070.59;4841964;29;20217;-83
2022/10/09 05:03:53;;;;;;;0.20;0.20;;;6.90;99.90;;;6.87;100.00;101073.19;4845681;29;20210;-85
2022/10/09 05:06:23;;;;;;;0.20;0.20;;;6.80;99.90;;;6.88;100.00;101080.22;4849173;29;20245;-83
2022/10/09 05:08:53;;;;;;;0.20;0.20;;;6.80;99.90;;;6.92;100.00;101088.25;4848759;29;20657;-82
2022/10/09 05:11:24;;;;;;;0.20;0.20;;;6.90;99.90;;;6.86;100.00;101090.69;4846234;29;20229;-82
2022/10/09 05:13:54;;;;;;;0.20;0.20;;;6.00;99.90;;;6.82;100.00;101095.78;4844046;29;20221;-82
2022/10/09 05:16:26;;;;;;;0.63;0.63;;;6.80;99.90;;;6.86;100.00;101090.69;4850464;29;20723;-82
2022/10/09 05:18:57;;;;;;;0.30;0.30;;;6.80;99.90;;;6.86;100.00;101101.19;4845426;29;20221;-86
2022/10/09 05:21:27;;;;;;;0.20;0.20;;;6.90;99.90;;;6.88;100.00;101102.16;4849710;29;20660;-83
2022/10/09 05:23:55;;;;;;;0.20;0.20;;;6.80;99.90;;;6.90;100.00;101108.34;4847427;29;20219;-82
2022/10/09 05:26:25;;;;;;;0.20;0.20;;;6.80;99.90;;;6.85;100.00;101109.94;4846028;29;20238;-86
2022/10/09 05:28:53;;;;;;;0.20;0.20;;;6.80;99.90;;;6.85;100.00;101109.03;4846399;29;20206;-83
2022/10/09 05:31:26;;;;;;;0.10;0.10;;;6.80;99.90;;;6.80;100.00;101115.88;4844340;29;20213;-85
2022/10/09 05:33:58;;;;;;;0.10;0.10;;;6.80;99.90;;;6.87;100.00;101117.88;4847138;29;20217;-81
2022/10/09 05:36:26;;;;;;;0.20;0.20;;;6.80;99.90;;;6.83;100.00;101118.59;4842821;29;20601;-85
2022/10/09 05:38:55;;;;;;;0.20;0.20;;;6.80;99.90;;;6.85;100.00;101122.19;4838997;29;20218;-82
2022/10/09 05:41:23;;;;;;;0.10;0.10;;;6.90;99.90;;;6.79;100.00;101119.34;4855839;29;20240;-82
2022/10/09 05:43:52;;;;;;;0.22;0.22;;;6.80;99.90;;;6.78;100.00;101121.06;4840427;29;20264;-82
2022/10/09 05:46:23;;;;;;;0.40;0.40;;;6.80;99.90;;;6.74;100.00;101122.69;4846034;29;20234;-85
2022/10/09 05:48:57;;;;;;;0.20;0.20;;;6.70;99.90;;;6.84;100.00;101139.69;4840894;29;20206;-82
2022/10/09 05:51:31;;;;;;;0.20;0.20;;;6.80;99.90;;;6.76;100.00;101128.00;4841874;29;20205;-81
2022/10/09 05:54:03;;;;;;;0.20;0.20;;;6.80;99.90;;;6.78;100.00;101123.72;4837777;29;20214;-81
2022/10/09 05:56:37;;;;;;;0.20;0.20;;;6.70;99.90;;;6.77;100.00;101124.53;4836534;29;20229;-80
2022/10/09 05:59:12;;;;;;;0.20;0.20;;;6.80;99.90;;;6.76;100.00;101122.75;4842009;29;20217;-83
2022/10/09 06:01:43;;;;;;;0.20;0.20;;;6.70;99.90;;;6.79;100.00;101129.84;4842900;29;20217;-83
2022/10/09 06:04:29;;;;;;;0.20;0.20;;;6.80;99.90;;;6.69;100.00;101126.91;4840052;29;20272;-83
2022/10/09 06:06:57;;;;;;;0.20;0.20;;;6.70;99.90;;;6.71;100.00;101141.00;4833757;29;20226;-82
2022/10/09 06:09:26;;;;;;;0.10;0.10;;;6.70;99.90;;;6.74;100.00;101138.47;4842163;29;20214;-84
2022/10/09 06:11:54;;;;;;;0.10;0.10;;;6.70;99.90;;;6.76;100.00;101149.03;4839530;29;20201;-83
2022/10/09 06:14:23;;;;;;;0.20;0.20;;;6.70;99.90;;;6.83;100.00;101150.16;4845706;29;20228;-83
2022/10/09 06:16:51;;;;;;;0.30;0.30;;;6.80;99.90;;;6.87;100.00;101157.31;4859791;29;20237;-83
2022/10/09 06:19:20;;;;;;;0.22;0.22;;;6.80;99.90;;;6.90;100.00;101162.69;4837554;29;20680;-84
2022/10/09 06:21:49;;;;;;;0.20;0.20;;;6.80;99.90;;;6.81;100.00;101157.09;4837614;29;20213;-82
2022/10/09 06:24:23;;;;;;;0.20;0.20;;;6.80;99.90;;;6.92;100.00;101168.88;4847919;29;20242;-83
2022/10/09 06:26:57;;;;;;;0.30;0.30;;;6.90;99.90;;;6.89;100.00;101168.78;4842497;29;20225;-81
2022/10/09 06:29:25;;;;;;;0.20;0.20;;;6.90;99.90;;;6.92;100.00;101168.88;4844922;29;20213;-80
2022/10/09 06:31:53;;;;;;;0.20;0.20;;;6.80;99.90;;;7.01;100.00;101164.84;4838744;29;20221;-81
2022/10/09 06:34:22;;;;;;;0.20;0.20;;;7.00;99.90;;;7.06;100.00;101175.53;4838756;29;20213;-82
2022/10/09 06:36:50;;;;;;;0.20;0.20;;;7.00;99.90;;;7.15;100.00;101170.56;4841600;29;20234;-79
2022/10/09 06:39:18;;;;;;;2.67;1.88;;;7.10;99.90;;;7.15;100.00;101162.69;4823346;29;20222;-80
2022/10/09 06:41:46;;;;;;;0.32;0.32;;;7.10;99.90;;;7.18;100.00;101175.06;4840875;29;20219;-80
2022/10/09 06:44:38;;;;;;;0.20;0.20;;;7.10;99.90;;;7.20;100.00;101176.91;4839950;29;20222;-81
2022/10/09 06:47:06;;;;;;;0.10;0.10;;;7.20;99.90;;;7.20;100.00;101171.63;4843355;29;20217;-79
2022/10/09 06:49:34;;;;;;;0.52;0.52;;;7.20;99.90;;;7.23;100.00;101184.00;4835682;29;20211;-78
2022/10/09 06:52:01;;;;;;;0.20;0.20;;;7.20;99.90;;;7.34;100.00;101188.78;4846259;29;20229;-79
2022/10/09 06:54:30;;;;;;;0.10;0.10;;;7.30;99.90;;;7.35;100.00;101194.94;4846943;29;20207;-78
2022/10/09 06:56:58;;;;;;;0.20;0.20;;;7.30;99.90;;;7.41;100.00;101196.88;4845490;29;20224;-79
2022/10/09 06:59:25;;;;;;;0.57;0.57;;;7.40;99.90;;;7.44;100.00;101204.88;4844603;29;20548;-79
2022/10/09 07:01:55;;;;;;;0.10;0.10;;;7.40;99.90;;;7.47;100.00;101211.16;4845191;29;20225;-78
2022/10/09 07:04:23;;;;;;;0.20;0.20;;;7.40;99.90;;;7.58;100.00;101217.66;4842956;29;20251;-79
2022/10/09 07:06:51;;;;;;;0.20;0.20;;;7.50;99.90;;;7.63;100.00;101217.81;4843142;29;20226;-79
2022/10/09 07:09:19;;;;;;;0.20;0.20;;;7.60;99.90;;;7.69;100.00;101237.34;4841542;29;20214;-79
2022/10/09 07:11:47;;;;;;;0.20;0.20;;;7.60;99.90;;;7.80;100.00;101226.28;4836530;29;20206;-79
2022/10/09 07:14:18;;;;;;;0.20;0.20;;;7.70;99.90;;;7.91;100.00;101236.34;4839627;29;20222;-77
2022/10/09 07:16:47;;;;;;;0.60;0.60;;;7.90;99.90;;;7.95;100.00;101232.97;4856813;29;20233;-79
2022/10/09 07:19:17;;;;;;;0.20;0.20;;;7.90;99.90;;;8.01;100.00;101227.88;4845644;29;20215;-79
2022/10/09 07:21:47;;;;;;;0.20;0.20;;;8.00;99.90;;;8.07;100.00;101239.47;4838696;29;20210;-79
2022/10/09 07:24:16;;;;;;;0.75;0.75;;;8.00;99.90;;;8.16;100.00;101239.75;4824496;29;20234;-79
2022/10/09 07:26:45;;;;;;;0.20;0.20;;;8.10;99.90;;;8.24;100.00;101238.25;4845575;29;20237;-79
2022/10/09 07:29:16;;;;;;;0.20;0.20;;;8.20;99.90;;;8.26;100.00;101233.94;4846104;29;20206;-80
2022/10/09 07:31:44;;;;;;;0.20;0.20;;;8.20;99.90;;;8.32;100.00;101223.56;4843352;29;20209;-77
2022/10/09 07:34:13;;;;;;;0.10;0.10;;;8.30;99.90;;;8.41;100.00;101220.34;4849745;29;20209;-79
2022/10/09 07:36:41;;;;;;;0.38;0.38;;;8.40;99.90;;;8.54;100.00;101218.13;4845097;29;20687;-79
2022/10/09 07:39:09;;;;;;;0.10;0.10;;;8.50;99.90;;;8.55;100.00;101211.13;4844973;29;20213;-78
2022/10/09 07:41:37;;;;;;;0.20;0.20;;;8.40;99.90;;;8.56;100.00;101216.44;4850451;29;20217;-81
2022/10/09 07:44:05;;;;;;;0.20;0.20;;;8.50;99.90;;;8.62;100.00;101219.25;4860416;29;20224;-80
2022/10/09 07:46:33;;;;;;;0.25;0.25;;;8.50;99.90;;;8.62;100.00;101221.88;4860023;29;20234;-80
2022/10/09 07:49:03;;;;;;;0.15;0.15;;;8.50;99.90;;;8.82;100.00;101224.22;4848650;29;20667;-80
2022/10/09 07:51:32;;;;;;;0.20;0.20;;;8.70;99.90;;;8.93;100.00;101222.78;4878386;29;20213;-83
2022/10/09 07:54:01;;;;;;;0.10;0.10;;;8.80;99.90;;;8.96;100.00;101223.75;4850602;29;20249;-81
2022/10/09 07:56:31;;;;;;;0.13;0.13;;;8.40;99.90;;;9.08;100.00;101225.84;4851859;29;20237;-80
2022/10/09 07:59:05;;;;;;;0.20;0.20;;;9.00;99.90;;;8.98;100.00;101219.41;4854579;29;20210;-82
2022/10/09 08:01:34;;;;;;;0.20;0.20;;;8.90;99.90;;;9.09;100.00;101219.72;4849492;29;20632;-85
2022/10/09 08:04:03;;;;;;;0.20;0.20;;;9.00;99.90;;;9.22;100.00;101227.13;4854837;29;20241;-82
2022/10/09 08:06:32;;;;;;;0.20;0.20;;;9.10;99.90;;;9.22;100.00;101227.13;4847902;29;20233;-84
2022/10/09 08:09:02;;;;;;;0.10;0.10;;;9.10;99.90;;;9.30;100.00;101229.97;4839267;29;20214;-82
2022/10/09 08:11:31;;;;;;;0.10;0.10;;;9.20;99.90;;;9.24;100.00;101222.78;4836830;29;20226;-82
2022/10/09 08:13:59;;;;;;;1.95;1.85;;;9.20;99.90;;;9.35;100.00;101227.47;4852268;29;20213;-81
2022/10/09 08:16:27;;;;;;;0.10;0.10;;;9.30;99.90;;;9.38;100.00;101236.34;4847554;29;20238;-81
2022/10/09 08:18:58;;;;;;;0.20;0.20;;;9.30;99.90;;;9.58;100.00;101250.09;4838014;29;20214;-81
2022/10/09 08:21:27;;;;;;;0.20;0.20;;;9.40;99.90;;;9.65;100.00;101241.47;4848205;29;20221;-83
2022/10/09 08:23:57;;;;;;;0.20;0.20;;;9.50;99.90;;;9.83;100.00;101251.59;4840348;29;20234;-84
2022/10/09 08:26:28;;;;;;;0.20;0.20;;;9.70;99.90;;;9.69;100.00;101231.88;4844509;29;20242;-82
2022/10/09 08:29:01;;;;;;;0.17;0.17;;;9.60;99.90;;;9.86;100.00;101247.28;4840289;29;20695;-81
2022/10/09 08:31:30;;;;;;;0.10;0.10;;;9.70;99.90;;;9.94;100.00;101236.91;4857936;29;20301;-80
2022/10/09 08:34:01;;;;;;;0.20;0.20;;;9.80;99.90;;;10.01;100.00;101235.31;4850219;29;20214;-80
2022/10/09 08:36:30;;;;;;;0.10;0.10;;;9.90;99.90;;;10.02;100.00;101231.81;4852865;29;20749;-83
2022/10/09 08:38:58;;;;;;;0.10;0.10;;;9.90;99.90;;;10.06;100.00;101237.19;4845617;29;20213;-83
2022/10/09 08:41:52;;;;;;;0.20;0.20;;;10.00;99.90;;;10.11;100.00;101242.59;4844273;29;20668;-84
2022/10/09 08:44:33;;;;;;;0.13;0.13;;;10.00;99.90;;;10.30;100.00;101238.66;4849788;29;20225;-82
2022/10/09 08:47:23;;;;;;;0.20;0.20;;;10.20;99.90;;;10.30;100.00;101244.84;4837478;29;20695;-81
2022/10/09 08:50:12;;;;;;;0.35;0.35;;;10.20;99.90;;;10.43;100.00;101256.63;4850914;29;20218;-81
2022/10/09 08:53:00;;;;;;;0.10;0.10;;;10.30;99.90;;;10.47;100.00;101253.19;4844991;29;20223;-82
2022/10/09 08:55:36;;;;;;;0.20;0.20;;;10.30;99.90;;;10.50;100.00;101256.78;4862471;29;20237;-82
2022/10/09 08:58:05;;;;;;;0.10;0.10;;;10.40;99.90;;;10.73;100.00;101259.94;4848618;29;20213;-82
2022/10/09 09:01:04;;;;;;;0.20;0.20;;;10.50;99.90;;;10.76;100.00;101245.88;4859989;29;20221;-82
2022/10/09 09:04:06;;;;;;;0.98;0.90;;;10.60;99.90;;;10.78;100.00;101239.75;4828591;29;20214;-84
2022/10/09 09:06:53;;;;;;;0.10;0.10;;;10.70;99.90;;;10.86;100.00;101234.63;4830431;29;20245;-81
2022/10/09 09:09:34;;;;;;;0.10;0.10;;;10.70;99.90;;;10.93;100.00;101254.19;4843417;29;20218;-81
2022/10/09 09:12:18;;;;;;;0.13;0.13;;;10.80;99.90;;;11.13;100.00;101251.06;4847253;29;20213;-81
2022/10/09 09:15:19;;;;;;;0.20;0.20;;;10.90;99.90;;;11.10;100.00;101240.41;4861558;29;20214;-84
2022/10/09 09:18:16;;;;;;;0.10;0.10;;;11.00;99.90;;;11.11;100.00;101242.19;4854775;29;20216;-81
2022/10/09 09:20:51;;;;;;;0.32;0.32;;;11.00;99.90;;;11.35;100.00;101243.53;4854678;29;20209;-84
2022/10/09 09:23:27;;;;;;;0.10;0.10;;;11.10;99.90;;;11.43;100.00;101239.28;4847052;29;20213;-79
2022/10/09 09:25:58;;;;;;;0.10;0.10;;;11.20;99.90;;;11.40;100.00;101221.56;4865329;29;20252;-79
2022/10/09 09:28:33;;;;;;;0.10;0.10;;;11.30;99.90;;;11.63;100.00;101239.63;4862415;29;20214;-80
2022/10/09 09:31:28;;;;;;;0.20;0.20;;;11.40;99.90;;;11.69;100.00;101234.44;4847894;29;20214;-79
2022/10/09 09:34:19;;;;;;;1.05;1.05;;;11.50;99.90;;;12.00;100.00;101242.09;4836083;29;20217;-80
2022/10/09 09:36:56;;;;;;;0.17;0.17;;;11.70;99.90;;;11.87;100.00;101204.75;4843980;29;20241;-80
2022/10/09 09:39:34;;;;;;;0.08;0.08;;;11.70;99.90;;;12.03;100.00;101225.34;4838614;29;20206;-80
2022/10/09 09:42:23;;;;;;;0.10;0.10;;;11.80;99.90;;;11.99;100.00;101203.19;4842283;29;20221;-80
2022/10/09 09:44:58;;;;;;;0.20;0.20;;;11.80;99.90;;;12.19;100.00;101222.06;4838934;29;20245;-81
2022/10/09 09:47:43;;;;;;;0.52;0.52;;;11.90;99.90;;;12.50;100.00;101223.38;4823858;29;20209;-80
2022/10/09 09:50:11;;;;;;;0.10;0.10;;;12.20;99.90;;;12.48;100.00;101203.91;4841401;29;20214;-81
2022/10/09 09:53:35;;;;;;;0.10;0.10;;;12.30;99.90;;;12.67;100.00;101208.56;4855631;29;20214;-80
2022/10/09 09:56:04;;;;;;;0.10;0.10;;;12.40;99.90;;;12.97;100.00;101215.13;4838163;29;20236;-80
2022/10/09 09:58:39;;;;;;;0.40;0.40;;;13.00;99.90;;;12.93;100.00;101186.75;4832448;29;20481;-80
2022/10/09 10:01:26;;;;;;;0.10;0.10;;;12.70;99.90;;;12.91;100.00;101188.50;4827094;29;20218;-80
2022/10/09 10:03:59;;;;;;;0.15;0.15;;;12.70;99.90;;;13.25;100.00;101213.75;4844799;29;20217;-81
2022/10/09 10:06:42;;;;;;;0.28;0.28;;;12.90;99.90;;;13.43;100.00;101204.19;4859342;29;20248;-79
2022/10/09 10:09:18;;;;;;;0.10;0.10;;;13.20;99.90;;;13.53;100.00;101167.97;4845701;29;20202;-81
2022/10/09 10:12:03;;;;;;;0.00;0.00;;;13.30;99.90;;;13.83;100.00;101153.13;4852339;29;20584;-81
2022/10/09 10:14:32;;;;;;;0.10;0.10;;;13.60;99.90;;;14.05;100.00;101155.94;4834464;29;20216;-80
2022/10/09 10:17:01;;;;;;;0.00;0.00;;;13.80;99.90;;;14.28;100.00;101161.41;4837124;29;20207;-80
2022/10/09 10:19:34;;;;;;;0.10;0.10;;;14.00;99.90;;;14.40;100.00;101132.22;4841071;29;20222;-80
2022/10/09 10:22:06;;;;;;;0.10;0.10;;;14.20;99.90;;;14.64;100.00;101152.75;4843638;29;20210;-81
2022/10/09 10:24:42;;;;;;;0.45;0.38;;;14.00;99.90;;;14.62;100.00;101100.41;4861938;29;20237;-80
2022/10/09 10:27:33;;;;;;;0.08;0.08;;;14.50;99.90;;;14.54;100.00;101044.47;4842565;29;20229;-80
2022/10/09 10:30:06;;;;;;;0.15;0.15;;;14.50;99.90;;;14.93;100.00;101054.31;4843538;29;20210;-81
2022/10/09 10:32:53;;;;;;;0.10;0.10;;;14.80;99.90;;;14.89;99.80;101009.91;4845361;29;20659;-81
2022/10/09 10:35:42;;;;;;;0.10;0.10;;;14.80;99.90;;;15.52;97.65;101041.84;4856450;29;20237;-81
2022/10/09 10:38:36;;;;;;;0.10;0.10;;;15.20;99.90;;;15.28;93.80;100946.84;4843983;29;20218;-81
2022/10/09 10:41:11;;;;;;;0.10;0.10;;;15.30;99.90;;;15.53;93.48;100966.31;4863094;29;20221;-80
2022/10/09 10:43:45;;;;;;;0.10;0.10;;;15.40;99.90;;;15.57;95.37;100987.66;4844948;29;20210;-82